createdAt,value
2023-03-07T00:01:03.751Z,4.90
2023-03-07T00:06:09.967Z,5.10
2023-03-07T00:11:12.867Z,5.53
2023-03-07T00:16:18.100Z,4.70
2023-03-07T00:21:22.704Z,5.57
2023-03-07T00:26:26.898Z,5.03
2023-03-07T00:31:29.312Z,5.73
2023-03-07T00:36:31.893Z,4.93
2023-03-07T00:41:35.152Z,4.90
2023-03-07T00:46:37.839Z,4.80
2023-03-07T00:51:40.427Z,4.57
2023-03-07T00:56:43.877Z,4.60
2023-03-07T01:01:46.787Z,4.70
2023-03-07T01:06:50.546Z,4.93
2023-03-07T01:11:53.583Z,4.20
2023-03-07T01:16:56.029Z,4.07
2023-03-07T01:21:58.650Z,4.60
2023-03-07T01:27:01.341Z,4.07
2023-03-07T01:32:04.012Z,4.83
2023-03-07T01:37:07.055Z,4.77
2023-03-07T01:42:10.696Z,4.23
2023-03-07T01:47:13.201Z,4.47
2023-03-07T01:52:38.373Z,4.37
2023-03-07T01:57:46.699Z,4.63
2023-03-07T02:03:00.185Z,4.23
2023-03-07T02:08:04.503Z,4.30
2023-03-07T02:13:09.742Z,4.57
2023-03-07T02:18:18.151Z,4.23
2023-03-07T02:23:34.922Z,4.83
2023-03-07T02:28:40.007Z,4.37
2023-03-07T02:33:43.407Z,4.50
2023-03-07T02:38:49.693Z,4.03
2023-03-07T02:43:53.104Z,4.40
2023-03-07T02:48:55.623Z,4.50
2023-03-07T02:53:58.287Z,4.10
2023-03-07T02:59:00.952Z,4.40
2023-03-07T03:04:03.657Z,4.87
2023-03-07T03:09:06.459Z,4.77
2023-03-07T03:14:09.076Z,4.67
2023-03-07T03:19:11.633Z,4.60
2023-03-07T03:24:14.626Z,4.83
2023-03-07T03:29:17.905Z,4.57
2023-03-07T03:34:21.679Z,4.40
2023-03-07T03:39:26.661Z,4.60
2023-03-07T03:44:34.542Z,4.97
2023-03-07T03:49:38.132Z,5.00
2023-03-07T03:54:40.858Z,4.87
2023-03-07T03:59:43.677Z,4.40
2023-03-07T04:04:48.873Z,4.73
2023-03-07T04:09:51.464Z,4.90
2023-03-07T04:14:53.961Z,4.60
2023-03-07T04:19:56.524Z,5.10
2023-03-07T04:24:59.571Z,4.63
2023-03-07T04:30:02.578Z,4.90
2023-03-07T04:35:05.809Z,4.77
2023-03-07T04:40:09.529Z,5.17
2023-03-07T04:45:12.241Z,4.90
2023-03-07T04:50:16.207Z,5.03
2023-03-07T04:55:21.017Z,5.10
2023-03-07T05:00:24.989Z,4.93
2023-03-07T05:05:27.715Z,4.83
2023-03-07T05:10:32.024Z,4.67
2023-03-07T05:15:35.794Z,5.20
2023-03-07T05:20:38.668Z,5.30
2023-03-07T05:25:43.470Z,4.80
2023-03-07T05:30:47.033Z,4.63
2023-03-07T05:35:49.724Z,4.93
2023-03-07T05:40:53.251Z,5.20
2023-03-07T05:45:56.006Z,4.73
2023-03-07T05:51:01.799Z,5.50
2023-03-07T05:56:05.841Z,4.30
2023-03-07T06:01:08.901Z,4.67
2023-03-07T06:06:12.691Z,4.57
2023-03-07T06:11:16.264Z,4.63
2023-03-07T06:16:19.082Z,4.60
2023-03-07T06:21:22.486Z,4.57
2023-03-07T06:26:25.204Z,4.47
2023-03-07T06:31:29.635Z,4.30
2023-03-07T06:36:32.503Z,4.60
2023-03-07T06:41:37.369Z,5.20
2023-03-07T06:46:41.180Z,5.33
2023-03-07T06:51:48.826Z,4.37
2023-03-07T06:56:51.977Z,4.73
2023-03-07T07:01:58.007Z,4.70
2023-03-07T07:07:00.590Z,5.03
2023-03-07T07:12:06.162Z,4.00
2023-03-07T07:17:10.521Z,4.77
2023-03-07T07:22:15.997Z,4.00
2023-03-07T07:27:19.580Z,4.83
2023-03-07T07:32:23.163Z,4.67
2023-03-07T07:37:25.991Z,4.40
2023-03-07T07:42:29.788Z,4.40
2023-03-07T07:47:49.629Z,4.77
2023-03-07T07:52:54.444Z,4.33
2023-03-07T07:57:57.710Z,4.23
2023-03-07T08:03:01.187Z,4.80
2023-03-07T08:08:03.901Z,4.40
2023-03-07T08:13:06.719Z,4.40
2023-03-07T08:18:10.996Z,5.33
2023-03-07T08:23:13.301Z,4.57
2023-03-07T08:28:18.143Z,4.83
2023-03-07T08:33:20.268Z,4.70
2023-03-07T08:38:22.321Z,5.10
2023-03-07T08:43:24.373Z,4.67
2023-03-07T08:48:27.265Z,4.40
2023-03-07T08:53:29.348Z,5.00
2023-03-07T08:58:31.408Z,4.03
2023-03-07T09:03:34.553Z,4.47
2023-03-07T09:08:37.032Z,3.97
2023-03-07T09:13:50.973Z,4.20
2023-03-07T09:18:53.816Z,3.90
2023-03-07T09:23:55.838Z,3.70
2023-03-07T09:28:57.798Z,3.83
2023-03-07T09:34:00.126Z,3.43
2023-03-07T09:39:02.934Z,3.50
2023-03-07T09:44:15.821Z,3.73
2023-03-07T09:49:48.249Z,3.63
2023-03-07T09:55:00.210Z,3.77
2023-03-07T10:00:25.006Z,3.40
2023-03-07T10:05:27.634Z,3.50
2023-03-07T10:10:58.739Z,3.60
2023-03-07T10:16:43.366Z,3.50
2023-03-07T10:22:11.323Z,3.60
2023-03-07T10:27:15.554Z,3.63
2023-03-07T10:32:21.142Z,3.20
2023-03-07T10:37:40.551Z,3.50
2023-03-07T10:42:43.151Z,4.00
2023-03-07T10:47:45.698Z,3.50
2023-03-07T10:52:53.785Z,4.07
2023-03-07T10:58:12.028Z,3.90
2023-03-07T11:03:26.720Z,3.60
2023-03-07T11:08:32.619Z,3.77
2023-03-07T11:13:35.368Z,3.67
2023-03-07T11:18:43.818Z,3.23
2023-03-07T11:23:59.755Z,3.23
2023-03-07T11:29:07.163Z,3.60
2023-03-07T11:34:24.421Z,4.00
2023-03-07T11:39:34.523Z,3.67
2023-03-07T11:44:53.424Z,3.63
2023-03-07T11:50:30.276Z,4.10
2023-03-07T11:56:04.707Z,3.77
2023-03-07T12:01:37.369Z,3.83
2023-03-07T12:07:13.631Z,3.10
2023-03-07T12:12:38.406Z,3.60
2023-03-07T12:18:14.279Z,3.63
2023-03-07T12:23:42.447Z,3.20
2023-03-07T12:29:01.644Z,4.13
2023-03-07T12:34:10.253Z,3.47
2023-03-07T12:39:19.902Z,3.40
2023-03-07T12:44:49.660Z,3.50
2023-03-07T12:50:03.470Z,4.10
2023-03-07T12:55:31.569Z,6.07
2023-03-07T13:00:39.517Z,3.47
2023-03-07T13:05:44.575Z,3.57
2023-03-07T13:10:47.388Z,3.20
2023-03-07T13:16:06.692Z,3.47
2023-03-07T13:21:31.138Z,3.60
2023-03-07T13:26:33.913Z,2.60
2023-03-07T13:31:45.114Z,3.30
2023-03-07T13:36:53.076Z,2.90
2023-03-07T13:41:55.547Z,3.07
2023-03-07T13:47:02.720Z,3.13
2023-03-07T13:52:35.903Z,2.80
2023-03-07T13:57:42.835Z,2.90
2023-03-07T14:02:45.970Z,2.50
2023-03-07T14:07:51.794Z,2.70
2023-03-07T14:13:12.138Z,3.13
2023-03-07T14:18:36.949Z,2.80
2023-03-07T14:24:01.249Z,2.43
2023-03-07T14:29:12.715Z,2.40
2023-03-07T14:34:36.731Z,2.20
2023-03-07T14:40:00.645Z,2.60
2023-03-07T14:45:33.485Z,2.50
2023-03-07T14:50:39.978Z,2.50
2023-03-07T14:55:45.357Z,2.37
2023-03-07T15:01:05.048Z,2.27
2023-03-07T15:06:16.130Z,2.20
2023-03-07T15:11:40.646Z,2.00
2023-03-07T15:16:53.148Z,2.30
2023-03-07T15:21:59.295Z,2.20
2023-03-07T15:27:02.825Z,2.23
2023-03-07T15:32:07.464Z,2.30
2023-03-07T15:37:26.832Z,2.70
2023-03-07T15:42:30.016Z,2.87
2023-03-07T15:47:34.280Z,2.30
2023-03-07T15:52:39.903Z,2.47
2023-03-07T15:57:52.972Z,2.40
2023-03-07T16:03:23.959Z,2.57
2023-03-07T16:08:27.642Z,2.60
2023-03-07T16:13:39.064Z,2.47
2023-03-07T16:18:43.062Z,2.40
2023-03-07T16:23:46.361Z,2.50
2023-03-07T16:28:52.230Z,2.63
2023-03-07T16:33:55.206Z,2.60
2023-03-07T16:38:57.677Z,2.27
2023-03-07T16:44:00.135Z,2.30
2023-03-07T16:49:02.805Z,2.40
2023-03-07T16:54:05.405Z,2.50
2023-03-07T16:59:12.822Z,3.00
2023-03-07T17:04:15.638Z,2.40
2023-03-07T17:09:18.183Z,2.20
2023-03-07T17:14:20.852Z,2.60
2023-03-07T17:19:28.694Z,2.43
2023-03-07T17:24:31.431Z,3.00
2023-03-07T17:29:41.881Z,2.77
2023-03-07T17:34:44.731Z,2.80
2023-03-07T17:39:48.488Z,2.63
2023-03-07T17:44:51.102Z,2.70
2023-03-07T17:49:53.579Z,3.17
2023-03-07T17:54:55.985Z,3.13
2023-03-07T17:59:58.644Z,2.70
2023-03-07T18:05:01.141Z,3.20
2023-03-07T18:10:08.156Z,2.97
2023-03-07T18:15:15.520Z,3.13
2023-03-07T18:20:19.818Z,2.80
2023-03-07T18:25:25.338Z,3.03
2023-03-07T18:30:28.044Z,3.10
2023-03-07T18:35:30.528Z,2.90
2023-03-07T18:40:33.155Z,3.00
2023-03-07T18:45:35.863Z,3.37
2023-03-07T18:50:39.013Z,3.63
2023-03-07T18:55:41.455Z,3.83
2023-03-07T19:00:44.317Z,3.73
2023-03-07T19:05:49.510Z,3.30
2023-03-07T19:10:51.912Z,3.20
2023-03-07T19:16:06.856Z,2.90
2023-03-07T19:21:15.856Z,3.07
2023-03-07T19:26:19.967Z,3.00
2023-03-07T19:31:25.463Z,3.00
2023-03-07T19:36:29.706Z,3.00
2023-03-07T19:41:32.958Z,3.03
2023-03-07T19:46:35.457Z,3.40
2023-03-07T19:51:40.080Z,3.20
2023-03-07T19:56:44.616Z,3.00
2023-03-07T20:01:47.322Z,3.20
2023-03-07T20:06:49.877Z,2.60
2023-03-07T20:11:52.374Z,2.87
2023-03-07T20:16:54.839Z,2.60
2023-03-07T20:21:57.233Z,2.60
2023-03-07T20:27:00.361Z,2.80
2023-03-07T20:32:03.135Z,2.60
2023-03-07T20:37:05.591Z,2.67
2023-03-07T20:42:08.331Z,2.90
2023-03-07T20:47:10.945Z,2.73
2023-03-07T20:52:13.661Z,2.37
2023-03-07T20:57:16.193Z,2.17
2023-03-07T21:02:18.628Z,2.40
2023-03-07T21:07:21.102Z,2.37
2023-03-07T21:12:23.486Z,2.30
2023-03-07T21:17:25.875Z,2.20
2023-03-07T21:22:28.304Z,2.13
2023-03-07T21:27:30.716Z,2.20
2023-03-07T21:32:33.234Z,2.70
2023-03-07T21:37:36.421Z,2.40
2023-03-07T21:42:39.124Z,2.50
2023-03-07T21:47:42.260Z,2.13
2023-03-07T21:52:45.965Z,2.40
2023-03-07T21:57:48.656Z,2.50
2023-03-07T22:02:51.175Z,2.40
2023-03-07T22:07:53.778Z,2.50
2023-03-07T22:12:56.254Z,2.43
2023-03-07T22:17:58.706Z,2.53
2023-03-07T22:23:01.158Z,2.30
2023-03-07T22:28:03.697Z,2.70
2023-03-07T22:33:06.173Z,2.53
2023-03-07T22:38:09.026Z,2.40
2023-03-07T22:43:11.663Z,2.77
2023-03-07T22:48:16.005Z,2.73
2023-03-07T22:53:18.577Z,3.07
2023-03-07T22:58:20.992Z,2.90
2023-03-07T23:03:23.773Z,2.57
2023-03-07T23:08:26.345Z,2.70
2023-03-07T23:13:28.803Z,3.00
2023-03-07T23:18:31.915Z,3.60
2023-03-07T23:23:35.293Z,3.37
2023-03-07T23:28:38.076Z,3.63
2023-03-07T23:33:40.564Z,3.83
2023-03-07T23:38:47.314Z,3.80
2023-03-07T23:43:54.055Z,3.57
2023-03-07T23:48:57.021Z,3.77
2023-03-07T23:53:59.445Z,4.10
2023-03-07T23:59:01.904Z,3.93
